TRA1E EHAM-LGTS
Flight info
| Callsign | TRA1E |
|---|---|
| Flight time | N/A |
| Altitude | 37000 |
| Route | EDUPO Z739 MISGO DOJOH DODEN NEGIX DINKU BESNI LATLO OBEDI BERTA TEBLI PODOB MEDUX UM867 KOGAT TALAS UN130 ALIKO |
| Aircraft | A21N/M-SDE2E3FGHIRWXY/LB1 |
Departure
| Time | 2026-05-04 08:05 |
|---|---|
| Airport | Amsterdam Airport Schiphol (EHAM) |
Arrival
| Time | N/A |
|---|---|
| Airport | Thessaloniki Macedonia International Airport (LGTS) |
| Time | Latitude | Longitude | Altitude | Speed | Heading |
|---|---|---|---|---|---|
| 2026-05-04 07:39 | 52.30579 | 4.76701 | 4 ft | 0 kts | 213° |
| 2026-05-04 07:58 | 52.30583 | 4.76705 | 4 ft | 4 kts | 213° |
| 2026-05-04 07:58 | 52.30605 | 4.76731 | 4 ft | 4 kts | 216° |
| 2026-05-04 07:58 | 52.30625 | 4.76754 | 4 ft | 3 kts | 215° |
| 2026-05-04 07:58 | 52.30645 | 4.76767 | 4 ft | 4 kts | 159° |
| 2026-05-04 07:59 | 52.30665 | 4.76743 | 4 ft | 4 kts | 144° |
| 2026-05-04 07:59 | 52.30673 | 4.76734 | 4 ft | 0 kts | 148° |
| 2026-05-04 08:02 | 52.30527 | 4.76949 | 4 ft | 13 kts | 150° |
| 2026-05-04 08:02 | 52.30453 | 4.77020 | 4 ft | 6 kts | 149° |
| 2026-05-04 08:02 | 52.30426 | 4.77071 | 4 ft | 7 kts | 107° |
| 2026-05-04 08:03 | 52.30440 | 4.77159 | 4 ft | 9 kts | 58° |
| 2026-05-04 08:03 | 52.30476 | 4.77250 | 4 ft | 10 kts | 58° |
| 2026-05-04 08:03 | 52.30516 | 4.77354 | 4 ft | 11 kts | 58° |
| 2026-05-04 08:03 | 52.30559 | 4.77465 | 4 ft | 11 kts | 57° |
| 2026-05-04 08:04 | 52.30536 | 4.77569 | 4 ft | 12 kts | 148° |
| 2026-05-04 08:04 | 52.30467 | 4.77631 | 4 ft | 10 kts | 153° |
| 2026-05-04 08:04 | 52.30403 | 4.77604 | 4 ft | 11 kts | 227° |
| 2026-05-04 08:04 | 52.30320 | 4.77400 | 3 ft | 49 kts | 238° |
| 2026-05-04 08:05 | 52.30019 | 4.76608 | 3 ft | 113 kts | 238° |
| 2026-05-04 08:05 | 52.29500 | 4.75261 | 4 ft | 165 kts | 238° |
| 2026-05-04 08:05 | 52.28863 | 4.73582 | 352 ft | 176 kts | 238° |
| 2026-05-04 08:05 | 52.28205 | 4.71870 | 977 ft | 178 kts | 237° |
| 2026-05-04 08:06 | 52.27525 | 4.70121 | 1535 ft | 188 kts | 237° |
| 2026-05-04 08:06 | 52.26744 | 4.68321 | 2031 ft | 202 kts | 223° |
| 2026-05-04 08:06 | 52.25450 | 4.67316 | 2441 ft | 220 kts | 186° |
| 2026-05-04 08:06 | 52.23890 | 4.67782 | 2763 ft | 242 kts | 149° |
| 2026-05-04 08:08 | 52.17658 | 4.85795 | 7324 ft | 285 kts | 109° |
| 2026-05-04 08:08 | 52.17438 | 4.88947 | 7929 ft | 288 kts | 82° |
| 2026-05-04 08:10 | 52.22587 | 5.16115 | 11303 ft | 357 kts | 73° |
| 2026-05-04 08:11 | 52.23314 | 5.20010 | 11767 ft | 361 kts | 75° |
| 2026-05-04 08:11 | 52.23212 | 5.28096 | 12667 ft | 365 kts | 111° |
| 2026-05-04 08:11 | 52.21969 | 5.31704 | 13092 ft | 367 kts | 126° |
| 2026-05-04 08:12 | 52.20454 | 5.35060 | 13507 ft | 369 kts | 127° |
| 2026-05-04 08:12 | 52.18915 | 5.38431 | 13905 ft | 372 kts | 127° |
| 2026-05-04 08:12 | 52.17385 | 5.41850 | 14288 ft | 374 kts | 126° |
| 2026-05-04 08:12 | 52.16375 | 5.44136 | 14536 ft | 376 kts | 126° |
| 2026-05-04 08:13 | 52.14852 | 5.47613 | 14895 ft | 379 kts | 126° |
| 2026-05-04 08:13 | 52.13324 | 5.51121 | 15240 ft | 381 kts | 126° |
| 2026-05-04 08:13 | 52.11786 | 5.54647 | 15575 ft | 383 kts | 126° |
| 2026-05-04 08:13 | 52.10240 | 5.58184 | 15889 ft | 385 kts | 126° |
| 2026-05-04 08:14 | 52.08681 | 5.61741 | 16194 ft | 387 kts | 126° |
| 2026-05-04 08:14 | 52.07112 | 5.65317 | 16483 ft | 389 kts | 126° |
| 2026-05-04 08:14 | 52.05463 | 5.68809 | 16752 ft | 391 kts | 130° |
| 2026-05-04 08:16 | 51.92778 | 5.92457 | 18395 ft | 402 kts | 131° |
| 2026-05-04 08:16 | 51.90937 | 5.95885 | 18594 ft | 404 kts | 131° |
| 2026-05-04 08:16 | 51.89089 | 5.99315 | 18779 ft | 405 kts | 131° |
| 2026-05-04 08:17 | 51.87233 | 6.02755 | 18969 ft | 407 kts | 131° |
| 2026-05-04 08:17 | 51.85371 | 6.06204 | 19154 ft | 408 kts | 131° |
| 2026-05-04 08:17 | 51.83497 | 6.09659 | 19329 ft | 409 kts | 131° |
| 2026-05-04 08:17 | 51.81611 | 6.13116 | 19501 ft | 410 kts | 131° |
| 2026-05-04 08:19 | 51.68284 | 6.37442 | 20543 ft | 418 kts | 132° |
| 2026-05-04 08:19 | 51.66356 | 6.40948 | 20674 ft | 419 kts | 132° |
| 2026-05-04 08:20 | 51.64422 | 6.44467 | 20801 ft | 420 kts | 132° |
| 2026-05-04 08:20 | 51.62484 | 6.47989 | 20932 ft | 421 kts | 132° |
| 2026-05-04 08:20 | 51.60539 | 6.51519 | 21062 ft | 422 kts | 132° |
| 2026-05-04 08:20 | 51.58589 | 6.55043 | 21189 ft | 423 kts | 132° |
| 2026-05-04 08:21 | 51.56631 | 6.58577 | 21312 ft | 424 kts | 132° |
| 2026-05-04 08:21 | 51.54670 | 6.62111 | 21436 ft | 424 kts | 132° |
| 2026-05-04 08:21 | 51.52699 | 6.65657 | 21552 ft | 425 kts | 132° |
| 2026-05-04 08:21 | 51.50727 | 6.69197 | 21661 ft | 426 kts | 132° |
| 2026-05-04 08:22 | 51.48749 | 6.72747 | 21767 ft | 427 kts | 132° |
| 2026-05-04 08:22 | 51.46765 | 6.76300 | 21877 ft | 428 kts | 132° |
| 2026-05-04 08:24 | 51.32210 | 7.00393 | 22556 ft | 433 kts | 136° |
| 2026-05-04 08:24 | 51.30042 | 7.03745 | 22644 ft | 434 kts | 136° |
| 2026-05-04 08:24 | 51.27874 | 7.07098 | 22733 ft | 434 kts | 136° |
| 2026-05-04 08:24 | 51.25703 | 7.10458 | 22822 ft | 435 kts | 136° |
| 2026-05-04 08:25 | 51.23526 | 7.13816 | 22911 ft | 435 kts | 136° |
| 2026-05-04 08:25 | 51.21348 | 7.17169 | 22992 ft | 436 kts | 136° |
| 2026-05-04 08:25 | 51.19163 | 7.20533 | 23071 ft | 437 kts | 136° |
| 2026-05-04 08:25 | 51.17032 | 7.23804 | 23144 ft | 437 kts | 136° |
| 2026-05-04 08:26 | 51.14838 | 7.27169 | 23219 ft | 438 kts | 136° |
| 2026-05-04 08:27 | 50.99384 | 7.50752 | 23729 ft | 442 kts | 136° |
| 2026-05-04 08:28 | 50.97161 | 7.54125 | 23794 ft | 442 kts | 136° |
| 2026-05-04 08:28 | 50.94933 | 7.57491 | 23870 ft | 443 kts | 136° |
| 2026-05-04 08:28 | 50.92705 | 7.60865 | 23943 ft | 443 kts | 136° |
| 2026-05-04 08:28 | 50.90472 | 7.64245 | 24019 ft | 444 kts | 136° |
| 2026-05-04 08:29 | 50.88236 | 7.67620 | 24090 ft | 444 kts | 137° |
| 2026-05-04 08:29 | 50.85997 | 7.70995 | 24156 ft | 445 kts | 136° |
| 2026-05-04 08:29 | 50.83753 | 7.74372 | 24222 ft | 445 kts | 136° |
| 2026-05-04 08:31 | 50.67942 | 7.97895 | 24669 ft | 448 kts | 137° |
| 2026-05-04 08:33 | 50.53127 | 8.23237 | 25082 ft | 453 kts | 129° |
| 2026-05-04 08:33 | 50.51166 | 8.27106 | 25139 ft | 453 kts | 129° |
| 2026-05-04 08:35 | 50.37261 | 8.54070 | 25769 ft | 450 kts | 133° |
| 2026-05-04 08:35 | 50.35144 | 8.57654 | 25932 ft | 448 kts | 133° |
| 2026-05-04 08:35 | 50.33021 | 8.61217 | 26024 ft | 448 kts | 133° |
| 2026-05-04 08:35 | 50.30893 | 8.64779 | 26085 ft | 448 kts | 133° |
| 2026-05-04 08:37 | 50.18082 | 8.86122 | 26467 ft | 451 kts | 134° |
| 2026-05-04 08:37 | 50.15930 | 8.89683 | 26572 ft | 451 kts | 134° |
| 2026-05-04 08:37 | 50.13787 | 8.93232 | 26741 ft | 448 kts | 133° |
| 2026-05-04 08:38 | 50.11655 | 8.96765 | 26931 ft | 446 kts | 134° |
| 2026-05-04 08:38 | 50.09532 | 9.00274 | 27099 ft | 444 kts | 134° |
| 2026-05-04 08:38 | 50.07433 | 9.03739 | 27518 ft | 435 kts | 134° |
| 2026-05-04 08:40 | 49.93245 | 9.27014 | 28479 ft | 424 kts | 134° |
| 2026-05-04 08:40 | 49.91212 | 9.30329 | 28529 ft | 424 kts | 134° |
| 2026-05-04 08:41 | 49.87138 | 9.36980 | 28626 ft | 426 kts | 134° |
| 2026-05-04 08:41 | 49.83042 | 9.43622 | 28727 ft | 427 kts | 134° |
| 2026-05-04 08:42 | 49.78934 | 9.50276 | 28832 ft | 428 kts | 134° |
| 2026-05-04 08:42 | 49.74808 | 9.56952 | 28942 ft | 430 kts | 134° |
| 2026-05-04 08:43 | 49.70661 | 9.63646 | 29057 ft | 432 kts | 134° |
| 2026-05-04 08:43 | 49.66488 | 9.70356 | 29180 ft | 435 kts | 134° |
| 2026-05-04 08:44 | 49.62279 | 9.77091 | 29308 ft | 437 kts | 134° |
| 2026-05-04 08:46 | 49.45061 | 10.04509 | 29919 ft | 455 kts | 134° |
| 2026-05-04 08:46 | 49.40621 | 10.11529 | 30114 ft | 461 kts | 134° |
| 2026-05-04 08:46 | 49.38407 | 10.15026 | 30220 ft | 465 kts | 134° |
| 2026-05-04 08:47 | 49.36141 | 10.18599 | 30334 ft | 470 kts | 134° |
| 2026-05-04 08:47 | 49.33845 | 10.22208 | 30459 ft | 475 kts | 134° |
| 2026-05-04 08:47 | 49.31527 | 10.25849 | 30596 ft | 480 kts | 134° |
| 2026-05-04 08:47 | 49.29177 | 10.29541 | 30766 ft | 486 kts | 134° |
| 2026-05-04 08:48 | 49.26809 | 10.33253 | 31030 ft | 490 kts | 134° |
| 2026-05-04 08:48 | 49.24423 | 10.36993 | 31330 ft | 492 kts | 135° |
| 2026-05-04 08:48 | 49.21978 | 10.40684 | 31628 ft | 495 kts | 136° |
| 2026-05-04 08:48 | 49.19501 | 10.44351 | 31900 ft | 498 kts | 136° |
| 2026-05-04 08:49 | 49.17019 | 10.48060 | 32251 ft | 499 kts | 136° |
| 2026-05-04 08:50 | 49.02113 | 10.70127 | 34323 ft | 497 kts | 136° |
| 2026-05-04 08:50 | 48.99625 | 10.73786 | 34616 ft | 497 kts | 136° |
| 2026-05-04 08:51 | 48.97138 | 10.77444 | 34897 ft | 497 kts | 136° |
| 2026-05-04 08:51 | 48.94645 | 10.81107 | 35023 ft | 500 kts | 136° |
| 2026-05-04 08:51 | 48.89604 | 10.88486 | 35022 ft | 504 kts | 136° |
| 2026-05-04 08:52 | 48.84550 | 10.95856 | 35005 ft | 504 kts | 136° |
| 2026-05-04 08:52 | 48.79529 | 11.03170 | 35002 ft | 503 kts | 136° |
| 2026-05-04 08:54 | 48.59664 | 11.32920 | 35005 ft | 502 kts | 133° |
| 2026-05-04 08:55 | 48.54978 | 11.40732 | 35001 ft | 502 kts | 132° |
| 2026-05-04 08:55 | 48.50283 | 11.48527 | 35003 ft | 502 kts | 133° |